sensor_id;sensor_type;location;lat;lon;timestamp;temperature;humidity
16655;DHT22;8441;51.344;7.022;2022-11-20T00:01:33;0.80;99.90
16655;DHT22;8441;51.344;7.022;2022-11-20T00:04:00;0.80;99.90
16655;DHT22;8441;51.344;7.022;2022-11-20T00:06:29;0.90;99.90
16655;DHT22;8441;51.344;7.022;2022-11-20T00:08:58;0.90;99.90
16655;DHT22;8441;51.344;7.022;2022-11-20T00:11:29;1.00;99.90
16655;DHT22;8441;51.344;7.022;2022-11-20T00:13:59;1.10;99.90
16655;DHT22;8441;51.344;7.022;2022-11-20T00:16:27;1.10;99.90
16655;DHT22;8441;51.344;7.022;2022-11-20T00:18:55;1.10;99.90
16655;DHT22;8441;51.344;7.022;2022-11-20T00:21:23;1.10;99.90
16655;DHT22;8441;51.344;7.022;2022-11-20T00:23:54;1.10;99.90
16655;DHT22;8441;51.344;7.022;2022-11-20T00:26:22;1.10;99.90
16655;DHT22;8441;51.344;7.022;2022-11-20T00:28:51;1.10;99.90
16655;DHT22;8441;51.344;7.022;2022-11-20T00:31:19;1.20;99.90
16655;DHT22;8441;51.344;7.022;2022-11-20T00:33:46;1.30;99.90
16655;DHT22;8441;51.344;7.022;2022-11-20T00:36:15;1.20;99.90
16655;DHT22;8441;51.344;7.022;2022-11-20T00:38:43;1.30;99.90
16655;DHT22;8441;51.344;7.022;2022-11-20T00:41:13;1.20;99.90
16655;DHT22;8441;51.344;7.022;2022-11-20T00:43:41;1.30;99.90
16655;DHT22;8441;51.344;7.022;2022-11-20T00:46:10;1.30;99.90
16655;DHT22;8441;51.344;7.022;2022-11-20T00:48:39;1.30;99.90
16655;DHT22;8441;51.344;7.022;2022-11-20T00:51:06;1.40;99.90
16655;DHT22;8441;51.344;7.022;2022-11-20T00:53:33;1.40;99.90
16655;DHT22;8441;51.344;7.022;2022-11-20T00:56:02;1.30;99.90
16655;DHT22;8441;51.344;7.022;2022-11-20T00:58:32;1.30;99.90
16655;DHT22;8441;51.344;7.022;2022-11-20T01:01:00;1.30;99.90
16655;DHT22;8441;51.344;7.022;2022-11-20T01:03:30;1.30;99.90
16655;DHT22;8441;51.344;7.022;2022-11-20T01:06:00;1.30;99.90
16655;DHT22;8441;51.344;7.022;2022-11-20T01:08:30;1.30;99.90
16655;DHT22;8441;51.344;7.022;2022-11-20T01:11:01;1.40;99.90
16655;DHT22;8441;51.344;7.022;2022-11-20T01:13:31;1.40;99.90
16655;DHT22;8441;51.344;7.022;2022-11-20T01:16:05;1.40;99.90
16655;DHT22;8441;51.344;7.022;2022-11-20T01:18:33;1.40;99.90
16655;DHT22;8441;51.344;7.022;2022-11-20T01:21:02;1.50;99.90
16655;DHT22;8441;51.344;7.022;2022-11-20T01:23:33;1.60;99.90
16655;DHT22;8441;51.344;7.022;2022-11-20T01:26:02;1.60;99.90
16655;DHT22;8441;51.344;7.022;2022-11-20T01:28:31;1.60;99.90
16655;DHT22;8441;51.344;7.022;2022-11-20T01:30:58;1.60;99.90
16655;DHT22;8441;51.344;7.022;2022-11-20T01:33:26;1.70;99.90
16655;DHT22;8441;51.344;7.022;2022-11-20T01:36:03;1.70;99.90
16655;DHT22;8441;51.344;7.022;2022-11-20T01:38:31;1.60;99.90
16655;DHT22;8441;51.344;7.022;2022-11-20T01:40:58;1.60;99.90
16655;DHT22;8441;51.344;7.022;2022-11-20T01:43:25;1.70;99.90
16655;DHT22;8441;51.344;7.022;2022-11-20T01:46:14;1.70;99.90
16655;DHT22;8441;51.344;7.022;2022-11-20T01:48:47;1.70;99.90
16655;DHT22;8441;51.344;7.022;2022-11-20T01:51:21;1.70;99.90
16655;DHT22;8441;51.344;7.022;2022-11-20T01:53:50;1.70;99.90
16655;DHT22;8441;51.344;7.022;2022-11-20T01:56:18;1.70;99.90
16655;DHT22;8441;51.344;7.022;2022-11-20T01:58:48;1.70;99.90
16655;DHT22;8441;51.344;7.022;2022-11-20T02:01:18;1.70;99.90
16655;DHT22;8441;51.344;7.022;2022-11-20T02:03:46;1.80;99.90
16655;DHT22;8441;51.344;7.022;2022-11-20T02:06:19;1.80;99.90
16655;DHT22;8441;51.344;7.022;2022-11-20T02:08:46;1.80;99.90
16655;DHT22;8441;51.344;7.022;2022-11-20T02:11:13;1.80;99.90
16655;DHT22;8441;51.344;7.022;2022-11-20T02:13:40;1.80;99.90
16655;DHT22;8441;51.344;7.022;2022-11-20T02:16:15;1.80;99.90
16655;DHT22;8441;51.344;7.022;2022-11-20T02:18:46;1.80;99.90
16655;DHT22;8441;51.344;7.022;2022-11-20T02:21:21;1.80;99.90
16655;DHT22;8441;51.344;7.022;2022-11-20T02:24:05;1.90;99.90
16655;DHT22;8441;51.344;7.022;2022-11-20T02:26:37;1.90;99.90
16655;DHT22;8441;51.344;7.022;2022-11-20T02:29:06;1.90;99.90
16655;DHT22;8441;51.344;7.022;2022-11-20T02:31:42;1.90;99.90
16655;DHT22;8441;51.344;7.022;2022-11-20T02:34:09;1.90;99.90
16655;DHT22;8441;51.344;7.022;2022-11-20T02:36:39;1.90;99.90
16655;DHT22;8441;51.344;7.022;2022-11-20T02:39:10;1.90;99.90
16655;DHT22;8441;51.344;7.022;2022-11-20T02:41:38;1.90;99.90
16655;DHT22;8441;51.344;7.022;2022-11-20T02:44:05;1.90;99.90
16655;DHT22;8441;51.344;7.022;2022-11-20T02:46:33;1.90;99.90
16655;DHT22;8441;51.344;7.022;2022-11-20T02:49:02;1.90;99.90
16655;DHT22;8441;51.344;7.022;2022-11-20T02:51:29;1.90;99.90
16655;DHT22;8441;51.344;7.022;2022-11-20T02:53:57;1.80;99.90
16655;DHT22;8441;51.344;7.022;2022-11-20T02:56:26;1.80;99.90
16655;DHT22;8441;51.344;7.022;2022-11-20T02:58:53;1.80;99.90
16655;DHT22;8441;51.344;7.022;2022-11-20T03:01:21;1.80;99.90
16655;DHT22;8441;51.344;7.022;2022-11-20T03:03:48;1.90;99.90
16655;DHT22;8441;51.344;7.022;2022-11-20T03:06:16;1.90;99.90
16655;DHT22;8441;51.344;7.022;2022-11-20T03:08:43;1.90;99.90
16655;DHT22;8441;51.344;7.022;2022-11-20T03:11:10;1.90;99.90
16655;DHT22;8441;51.344;7.022;2022-11-20T03:13:38;1.90;99.90
16655;DHT22;8441;51.344;7.022;2022-11-20T03:16:11;1.90;99.90
16655;DHT22;8441;51.344;7.022;2022-11-20T03:18:39;1.90;99.90
16655;DHT22;8441;51.344;7.022;2022-11-20T03:21:07;2.00;99.90
16655;DHT22;8441;51.344;7.022;2022-11-20T03:23:35;1.90;99.90
16655;DHT22;8441;51.344;7.022;2022-11-20T03:26:10;2.00;99.90
16655;DHT22;8441;51.344;7.022;2022-11-20T03:28:39;2.00;99.90
16655;DHT22;8441;51.344;7.022;2022-11-20T03:31:08;2.00;99.90
16655;DHT22;8441;51.344;7.022;2022-11-20T03:33:36;2.00;99.90
16655;DHT22;8441;51.344;7.022;2022-11-20T03:36:04;2.10;99.90
16655;DHT22;8441;51.344;7.022;2022-11-20T03:38:31;2.00;99.90
16655;DHT22;8441;51.344;7.022;2022-11-20T03:41:00;2.10;99.90
16655;DHT22;8441;51.344;7.022;2022-11-20T03:43:28;2.10;99.90
16655;DHT22;8441;51.344;7.022;2022-11-20T03:45:56;2.10;99.90
16655;DHT22;8441;51.344;7.022;2022-11-20T03:48:24;2.10;99.90
16655;DHT22;8441;51.344;7.022;2022-11-20T03:50:51;2.10;99.90
16655;DHT22;8441;51.344;7.022;2022-11-20T03:53:19;2.10;99.90
16655;DHT22;8441;51.344;7.022;2022-11-20T03:55:51;2.10;99.90
16655;DHT22;8441;51.344;7.022;2022-11-20T03:58:18;2.20;99.90
16655;DHT22;8441;51.344;7.022;2022-11-20T04:00:45;2.10;99.90
16655;DHT22;8441;51.344;7.022;2022-11-20T04:03:14;2.10;99.90
16655;DHT22;8441;51.344;7.022;2022-11-20T04:05:41;2.20;99.90
16655;DHT22;8441;51.344;7.022;2022-11-20T04:08:08;2.30;99.90
16655;DHT22;8441;51.344;7.022;2022-11-20T04:10:36;2.30;99.90
16655;DHT22;8441;51.344;7.022;2022-11-20T04:13:03;2.20;99.90
16655;DHT22;8441;51.344;7.022;2022-11-20T04:15:30;2.20;99.90
16655;DHT22;8441;51.344;7.022;2022-11-20T04:17:58;2.20;99.90
16655;DHT22;8441;51.344;7.022;2022-11-20T04:20:26;2.30;99.90
16655;DHT22;8441;51.344;7.022;2022-11-20T04:22:53;2.30;99.90
16655;DHT22;8441;51.344;7.022;2022-11-20T04:25:21;2.40;99.90
16655;DHT22;8441;51.344;7.022;2022-11-20T04:27:48;2.40;99.90
16655;DHT22;8441;51.344;7.022;2022-11-20T04:30:15;2.50;99.90
16655;DHT22;8441;51.344;7.022;2022-11-20T04:32:42;2.50;99.90
16655;DHT22;8441;51.344;7.022;2022-11-20T04:35:10;2.40;99.90
16655;DHT22;8441;51.344;7.022;2022-11-20T04:37:38;2.40;99.90
16655;DHT22;8441;51.344;7.022;2022-11-20T04:40:06;2.30;99.90
16655;DHT22;8441;51.344;7.022;2022-11-20T04:42:33;2.40;99.90
16655;DHT22;8441;51.344;7.022;2022-11-20T04:45:01;2.40;99.90
16655;DHT22;8441;51.344;7.022;2022-11-20T04:47:28;2.30;99.90
16655;DHT22;8441;51.344;7.022;2022-11-20T04:49:55;2.30;99.90
16655;DHT22;8441;51.344;7.022;2022-11-20T04:52:22;2.20;99.90
16655;DHT22;8441;51.344;7.022;2022-11-20T04:54:51;2.20;99.90
16655;DHT22;8441;51.344;7.022;2022-11-20T04:57:19;2.20;99.90
16655;DHT22;8441;51.344;7.022;2022-11-20T04:59:46;2.30;99.90
16655;DHT22;8441;51.344;7.022;2022-11-20T05:02:13;2.40;99.90
16655;DHT22;8441;51.344;7.022;2022-11-20T05:04:40;2.40;99.90
16655;DHT22;8441;51.344;7.022;2022-11-20T05:07:07;2.30;99.90
16655;DHT22;8441;51.344;7.022;2022-11-20T05:09:35;2.30;99.90
16655;DHT22;8441;51.344;7.022;2022-11-20T05:12:03;2.20;99.90
16655;DHT22;8441;51.344;7.022;2022-11-20T05:14:31;2.30;99.90
16655;DHT22;8441;51.344;7.022;2022-11-20T05:16:58;2.30;99.90
16655;DHT22;8441;51.344;7.022;2022-11-20T05:19:25;2.30;99.90
16655;DHT22;8441;51.344;7.022;2022-11-20T05:21:52;2.20;99.90
16655;DHT22;8441;51.344;7.022;2022-11-20T05:24:20;2.20;99.90
16655;DHT22;8441;51.344;7.022;2022-11-20T05:26:47;2.30;99.90
16655;DHT22;8441;51.344;7.022;2022-11-20T05:29:16;2.30;99.90
16655;DHT22;8441;51.344;7.022;2022-11-20T05:31:43;2.30;99.90
16655;DHT22;8441;51.344;7.022;2022-11-20T05:34:10;2.30;99.90
16655;DHT22;8441;51.344;7.022;2022-11-20T05:36:37;2.30;99.90
16655;DHT22;8441;51.344;7.022;2022-11-20T05:39:04;2.20;99.90
16655;DHT22;8441;51.344;7.022;2022-11-20T05:41:33;2.30;99.90
16655;DHT22;8441;51.344;7.022;2022-11-20T05:44:00;2.20;99.90
16655;DHT22;8441;51.344;7.022;2022-11-20T05:46:29;2.30;99.90
16655;DHT22;8441;51.344;7.022;2022-11-20T05:48:56;2.30;99.90
16655;DHT22;8441;51.344;7.022;2022-11-20T05:51:24;2.30;99.90
16655;DHT22;8441;51.344;7.022;2022-11-20T05:53:52;2.30;99.90
16655;DHT22;8441;51.344;7.022;2022-11-20T05:56:21;2.30;99.90
16655;DHT22;8441;51.344;7.022;2022-11-20T05:58:48;2.30;99.90
16655;DHT22;8441;51.344;7.022;2022-11-20T06:01:17;2.40;99.90
16655;DHT22;8441;51.344;7.022;2022-11-20T06:03:46;2.40;99.90
16655;DHT22;8441;51.344;7.022;2022-11-20T06:06:17;2.40;99.90
16655;DHT22;8441;51.344;7.022;2022-11-20T06:08:44;2.40;99.90
16655;DHT22;8441;51.344;7.022;2022-11-20T06:11:13;2.40;99.90
16655;DHT22;8441;51.344;7.022;2022-11-20T06:13:41;2.40;99.90
16655;DHT22;8441;51.344;7.022;2022-11-20T06:16:09;2.40;99.90
16655;DHT22;8441;51.344;7.022;2022-11-20T06:18:37;2.40;99.90
16655;DHT22;8441;51.344;7.022;2022-11-20T06:21:08;2.40;99.90
16655;DHT22;8441;51.344;7.022;2022-11-20T06:23:36;2.30;99.90
16655;DHT22;8441;51.344;7.022;2022-11-20T06:26:03;2.30;99.90
16655;DHT22;8441;51.344;7.022;2022-11-20T06:28:31;2.40;99.90
16655;DHT22;8441;51.344;7.022;2022-11-20T06:30:58;2.40;99.90
16655;DHT22;8441;51.344;7.022;2022-11-20T06:33:26;2.30;99.90
16655;DHT22;8441;51.344;7.022;2022-11-20T06:35:56;2.30;99.90
16655;DHT22;8441;51.344;7.022;2022-11-20T06:38:24;2.30;99.90
16655;DHT22;8441;51.344;7.022;2022-11-20T06:40:52;2.40;99.90
16655;DHT22;8441;51.344;7.022;2022-11-20T06:43:19;2.40;99.90
16655;DHT22;8441;51.344;7.022;2022-11-20T06:45:46;2.40;99.90
16655;DHT22;8441;51.344;7.022;2022-11-20T06:48:17;2.40;99.90
16655;DHT22;8441;51.344;7.022;2022-11-20T06:50:45;2.40;99.90
16655;DHT22;8441;51.344;7.022;2022-11-20T06:53:12;2.50;99.90
16655;DHT22;8441;51.344;7.022;2022-11-20T06:55:44;2.40;99.90
16655;DHT22;8441;51.344;7.022;2022-11-20T06:58:11;2.40;99.90
16655;DHT22;8441;51.344;7.022;2022-11-20T07:00:39;2.30;99.90
16655;DHT22;8441;51.344;7.022;2022-11-20T07:03:06;2.30;99.90
16655;DHT22;8441;51.344;7.022;2022-11-20T07:05:35;2.40;99.90
16655;DHT22;8441;51.344;7.022;2022-11-20T07:08:03;2.40;99.90
16655;DHT22;8441;51.344;7.022;2022-11-20T07:10:31;2.30;99.90
16655;DHT22;8441;51.344;7.022;2022-11-20T07:13:00;2.30;99.90
16655;DHT22;8441;51.344;7.022;2022-11-20T07:15:27;2.30;99.90
16655;DHT22;8441;51.344;7.022;2022-11-20T07:17:54;2.40;99.90
16655;DHT22;8441;51.344;7.022;2022-11-20T07:20:21;2.40;99.90
16655;DHT22;8441;51.344;7.022;2022-11-20T07:22:53;2.40;99.90
16655;DHT22;8441;51.344;7.022;2022-11-20T07:25:21;2.40;99.90
16655;DHT22;8441;51.344;7.022;2022-11-20T07:27:49;2.40;99.90
16655;DHT22;8441;51.344;7.022;2022-11-20T07:30:17;2.50;99.90
16655;DHT22;8441;51.344;7.022;2022-11-20T07:32:46;2.50;99.90
16655;DHT22;8441;51.344;7.022;2022-11-20T07:35:14;2.50;99.90
16655;DHT22;8441;51.344;7.022;2022-11-20T07:37:41;2.50;99.90
16655;DHT22;8441;51.344;7.022;2022-11-20T07:40:09;2.50;99.90
16655;DHT22;8441;51.344;7.022;2022-11-20T07:42:36;2.50;99.90
16655;DHT22;8441;51.344;7.022;2022-11-20T07:45:04;2.50;99.90
16655;DHT22;8441;51.344;7.022;2022-11-20T07:47:36;2.50;99.90
16655;DHT22;8441;51.344;7.022;2022-11-20T07:50:04;2.40;99.90
16655;DHT22;8441;51.344;7.022;2022-11-20T07:52:31;2.20;99.90
16655;DHT22;8441;51.344;7.022;2022-11-20T07:54:58;2.00;99.90
16655;DHT22;8441;51.344;7.022;2022-11-20T07:57:26;1.90;99.90
16655;DHT22;8441;51.344;7.022;2022-11-20T07:59:53;1.80;99.90
16655;DHT22;8441;51.344;7.022;2022-11-20T08:02:20;1.70;99.90
16655;DHT22;8441;51.344;7.022;2022-11-20T08:04:49;1.60;99.90
16655;DHT22;8441;51.344;7.022;2022-11-20T08:07:16;1.50;99.90
16655;DHT22;8441;51.344;7.022;2022-11-20T08:09:43;1.50;99.90
16655;DHT22;8441;51.344;7.022;2022-11-20T08:12:17;1.50;99.90
16655;DHT22;8441;51.344;7.022;2022-11-20T08:15:17;1.60;99.90
16655;DHT22;8441;51.344;7.022;2022-11-20T08:17:44;1.90;99.90
16655;DHT22;8441;51.344;7.022;2022-11-20T08:20:13;2.10;99.90
16655;DHT22;8441;51.344;7.022;2022-11-20T08:22:40;2.20;99.90
16655;DHT22;8441;51.344;7.022;2022-11-20T08:25:08;2.30;99.90
16655;DHT22;8441;51.344;7.022;2022-11-20T08:27:35;2.40;99.90
16655;DHT22;8441;51.344;7.022;2022-11-20T08:30:02;2.50;99.90
16655;DHT22;8441;51.344;7.022;2022-11-20T08:32:30;2.60;99.90
16655;DHT22;8441;51.344;7.022;2022-11-20T08:34:57;2.70;99.90
16655;DHT22;8441;51.344;7.022;2022-11-20T08:37:26;2.80;99.90
16655;DHT22;8441;51.344;7.022;2022-11-20T08:39:53;3.00;99.90
16655;DHT22;8441;51.344;7.022;2022-11-20T08:42:22;3.10;99.90
16655;DHT22;8441;51.344;7.022;2022-11-20T08:44:50;3.20;99.90
16655;DHT22;8441;51.344;7.022;2022-11-20T08:47:17;3.30;99.90
16655;DHT22;8441;51.344;7.022;2022-11-20T08:49:44;3.30;99.90
16655;DHT22;8441;51.344;7.022;2022-11-20T08:52:11;3.50;99.90
16655;DHT22;8441;51.344;7.022;2022-11-20T08:54:40;3.50;99.90
16655;DHT22;8441;51.344;7.022;2022-11-20T08:57:07;3.60;99.90
16655;DHT22;8441;51.344;7.022;2022-11-20T08:59:34;3.70;99.90
16655;DHT22;8441;51.344;7.022;2022-11-20T09:02:01;3.60;99.90
16655;DHT22;8441;51.344;7.022;2022-11-20T09:04:28;3.70;99.90
16655;DHT22;8441;51.344;7.022;2022-11-20T09:06:55;3.70;99.90
16655;DHT22;8441;51.344;7.022;2022-11-20T09:09:23;3.70;99.90
16655;DHT22;8441;51.344;7.022;2022-11-20T09:11:52;3.80;99.90
16655;DHT22;8441;51.344;7.022;2022-11-20T09:14:19;3.80;99.90
16655;DHT22;8441;51.344;7.022;2022-11-20T09:16:46;3.80;99.90
16655;DHT22;8441;51.344;7.022;2022-11-20T09:19:14;3.80;99.90
16655;DHT22;8441;51.344;7.022;2022-11-20T09:21:41;3.80;99.90
16655;DHT22;8441;51.344;7.022;2022-11-20T09:24:08;3.90;99.90
16655;DHT22;8441;51.344;7.022;2022-11-20T09:26:36;3.90;99.90
16655;DHT22;8441;51.344;7.022;2022-11-20T09:29:04;3.90;99.90
16655;DHT22;8441;51.344;7.022;2022-11-20T09:31:31;3.90;99.90
16655;DHT22;8441;51.344;7.022;2022-11-20T09:33:58;3.90;99.90
16655;DHT22;8441;51.344;7.022;2022-11-20T09:36:26;3.90;99.90
16655;DHT22;8441;51.344;7.022;2022-11-20T09:38:53;4.00;99.90
16655;DHT22;8441;51.344;7.022;2022-11-20T09:41:36;4.10;99.90
16655;DHT22;8441;51.344;7.022;2022-11-20T09:44:20;4.20;99.90
16655;DHT22;8441;51.344;7.022;2022-11-20T09:46:56;4.20;99.90
16655;DHT22;8441;51.344;7.022;2022-11-20T09:49:32;4.30;99.90
16655;DHT22;8441;51.344;7.022;2022-11-20T09:52:12;4.40;99.90
16655;DHT22;8441;51.344;7.022;2022-11-20T09:54:44;4.40;99.90
16655;DHT22;8441;51.344;7.022;2022-11-20T09:57:13;4.50;99.90
16655;DHT22;8441;51.344;7.022;2022-11-20T09:59:44;4.50;99.90
16655;DHT22;8441;51.344;7.022;2022-11-20T10:02:25;4.60;99.90
16655;DHT22;8441;51.344;7.022;2022-11-20T10:04:59;4.70;99.90
16655;DHT22;8441;51.344;7.022;2022-11-20T10:07:30;4.90;99.90
16655;DHT22;8441;51.344;7.022;2022-11-20T10:09:59;4.90;99.90
16655;DHT22;8441;51.344;7.022;2022-11-20T10:12:34;4.80;99.90
16655;DHT22;8441;51.344;7.022;2022-11-20T10:15:17;4.60;99.90
16655;DHT22;8441;51.344;7.022;2022-11-20T10:17:57;4.60;99.90
16655;DHT22;8441;51.344;7.022;2022-11-20T10:20:29;4.60;99.90
16655;DHT22;8441;51.344;7.022;2022-11-20T10:26:01;4.60;99.90
16655;DHT22;8441;51.344;7.022;2022-11-20T10:28:39;4.60;99.90
16655;DHT22;8441;51.344;7.022;2022-11-20T10:31:17;4.70;99.90
16655;DHT22;8441;51.344;7.022;2022-11-20T10:33:48;4.80;99.90
16655;DHT22;8441;51.344;7.022;2022-11-20T10:36:23;4.90;99.90
16655;DHT22;8441;51.344;7.022;2022-11-20T10:38:56;5.00;99.90
16655;DHT22;8441;51.344;7.022;2022-11-20T10:41:27;5.00;99.90
16655;DHT22;8441;51.344;7.022;2022-11-20T10:44:02;5.00;99.90
16655;DHT22;8441;51.344;7.022;2022-11-20T10:46:36;4.90;99.90
16655;DHT22;8441;51.344;7.022;2022-11-20T10:49:10;4.80;99.90
16655;DHT22;8441;51.344;7.022;2022-11-20T10:51:45;4.90;99.90
16655;DHT22;8441;51.344;7.022;2022-11-20T10:54:22;4.90;99.90
16655;DHT22;8441;51.344;7.022;2022-11-20T10:56:52;4.90;99.90
16655;DHT22;8441;51.344;7.022;2022-11-20T10:59:38;4.90;99.90
16655;DHT22;8441;51.344;7.022;2022-11-20T11:02:21;4.90;99.90
16655;DHT22;8441;51.344;7.022;2022-11-20T11:04:49;5.10;99.90
16655;DHT22;8441;51.344;7.022;2022-11-20T11:07:20;5.10;99.90
16655;DHT22;8441;51.344;7.022;2022-11-20T11:09:51;5.20;99.90
16655;DHT22;8441;51.344;7.022;2022-11-20T11:12:19;5.30;99.90
16655;DHT22;8441;51.344;7.022;2022-11-20T11:14:49;5.30;99.90
16655;DHT22;8441;51.344;7.022;2022-11-20T11:17:28;5.40;99.90
16655;DHT22;8441;51.344;7.022;2022-11-20T11:20:05;5.30;99.90
16655;DHT22;8441;51.344;7.022;2022-11-20T11:22:34;5.30;99.90
16655;DHT22;8441;51.344;7.022;2022-11-20T11:25:02;5.40;99.90
16655;DHT22;8441;51.344;7.022;2022-11-20T11:27:29;5.40;99.90
16655;DHT22;8441;51.344;7.022;2022-11-20T11:30:12;5.50;99.90
16655;DHT22;8441;51.344;7.022;2022-11-20T11:32:43;5.50;99.90
16655;DHT22;8441;51.344;7.022;2022-11-20T11:35:22;5.50;99.90
16655;DHT22;8441;51.344;7.022;2022-11-20T11:37:49;5.50;99.90
16655;DHT22;8441;51.344;7.022;2022-11-20T11:40:20;5.30;99.90
16655;DHT22;8441;51.344;7.022;2022-11-20T11:42:52;5.30;99.90
16655;DHT22;8441;51.344;7.022;2022-11-20T11:45:21;5.30;99.90
16655;DHT22;8441;51.344;7.022;2022-11-20T11:47:51;5.40;99.90
16655;DHT22;8441;51.344;7.022;2022-11-20T11:50:21;5.40;99.90
16655;DHT22;8441;51.344;7.022;2022-11-20T11:52:54;5.30;99.90
16655;DHT22;8441;51.344;7.022;2022-11-20T11:55:29;5.30;99.90
16655;DHT22;8441;51.344;7.022;2022-11-20T11:58:06;5.30;99.90
16655;DHT22;8441;51.344;7.022;2022-11-20T12:00:37;5.30;99.90
16655;DHT22;8441;51.344;7.022;2022-11-20T12:03:12;5.30;99.90
16655;DHT22;8441;51.344;7.022;2022-11-20T12:05:44;5.10;99.90
16655;DHT22;8441;51.344;7.022;2022-11-20T12:08:17;5.00;99.90
16655;DHT22;8441;51.344;7.022;2022-11-20T12:10:51;5.00;99.90
16655;DHT22;8441;51.344;7.022;2022-11-20T12:13:32;5.00;99.90
16655;DHT22;8441;51.344;7.022;2022-11-20T12:16:02;5.00;99.90
16655;DHT22;8441;51.344;7.022;2022-11-20T12:18:32;5.00;99.90
16655;DHT22;8441;51.344;7.022;2022-11-20T12:21:09;5.00;99.90
16655;DHT22;8441;51.344;7.022;2022-11-20T12:23:46;4.80;99.90
16655;DHT22;8441;51.344;7.022;2022-11-20T12:26:22;5.00;99.90
16655;DHT22;8441;51.344;7.022;2022-11-20T12:29:04;5.10;99.90
16655;DHT22;8441;51.344;7.022;2022-11-20T12:31:51;5.00;99.90
16655;DHT22;8441;51.344;7.022;2022-11-20T12:34:44;5.00;99.90
16655;DHT22;8441;51.344;7.022;2022-11-20T12:37:23;5.00;99.90
16655;DHT22;8441;51.344;7.022;2022-11-20T12:39:55;5.00;99.90
16655;DHT22;8441;51.344;7.022;2022-11-20T12:42:42;4.90;99.90
16655;DHT22;8441;51.344;7.022;2022-11-20T12:45:59;4.80;99.90
16655;DHT22;8441;51.344;7.022;2022-11-20T12:48:38;4.90;99.90
16655;DHT22;8441;51.344;7.022;2022-11-20T12:51:31;4.90;99.90
16655;DHT22;8441;51.344;7.022;2022-11-20T12:57:01;4.90;99.90
16655;DHT22;8441;51.344;7.022;2022-11-20T12:59:45;5.00;99.90
16655;DHT22;8441;51.344;7.022;2022-11-20T13:02:25;5.00;99.90
16655;DHT22;8441;51.344;7.022;2022-11-20T13:05:13;5.00;99.90
16655;DHT22;8441;51.344;7.022;2022-11-20T13:07:46;5.10;99.90
16655;DHT22;8441;51.344;7.022;2022-11-20T13:10:18;5.10;99.90
16655;DHT22;8441;51.344;7.022;2022-11-20T13:12:51;5.10;99.90
16655;DHT22;8441;51.344;7.022;2022-11-20T13:15:31;5.10;99.90
16655;DHT22;8441;51.344;7.022;2022-11-20T13:18:02;5.10;99.90
16655;DHT22;8441;51.344;7.022;2022-11-20T13:20:32;5.20;99.90
16655;DHT22;8441;51.344;7.022;2022-11-20T13:23:01;5.20;99.90
16655;DHT22;8441;51.344;7.022;2022-11-20T13:25:30;5.10;99.90
16655;DHT22;8441;51.344;7.022;2022-11-20T13:28:00;5.10;99.90
16655;DHT22;8441;51.344;7.022;2022-11-20T13:30:28;5.10;99.90
16655;DHT22;8441;51.344;7.022;2022-11-20T13:32:58;5.10;99.90
16655;DHT22;8441;51.344;7.022;2022-11-20T13:35:30;5.00;99.90
16655;DHT22;8441;51.344;7.022;2022-11-20T13:38:05;4.90;99.90
16655;DHT22;8441;51.344;7.022;2022-11-20T13:40:33;4.90;99.90
16655;DHT22;8441;51.344;7.022;2022-11-20T13:43:08;4.90;99.90
16655;DHT22;8441;51.344;7.022;2022-11-20T13:45:37;5.00;99.90
16655;DHT22;8441;51.344;7.022;2022-11-20T13:48:19;5.00;99.90
16655;DHT22;8441;51.344;7.022;2022-11-20T13:50:58;5.10;99.90
16655;DHT22;8441;51.344;7.022;2022-11-20T13:56:23;5.00;99.90
16655;DHT22;8441;51.344;7.022;2022-11-20T13:58:59;5.00;99.90
16655;DHT22;8441;51.344;7.022;2022-11-20T14:01:30;5.00;99.90
16655;DHT22;8441;51.344;7.022;2022-11-20T14:03:59;4.90;99.90
16655;DHT22;8441;51.344;7.022;2022-11-20T14:06:27;4.90;99.90
16655;DHT22;8441;51.344;7.022;2022-11-20T14:08:58;4.90;99.90
16655;DHT22;8441;51.344;7.022;2022-11-20T14:11:27;4.90;99.90
16655;DHT22;8441;51.344;7.022;2022-11-20T14:13:56;4.90;99.90
16655;DHT22;8441;51.344;7.022;2022-11-20T14:16:25;5.00;99.90
16655;DHT22;8441;51.344;7.022;2022-11-20T14:18:53;5.00;99.90
16655;DHT22;8441;51.344;7.022;2022-11-20T14:21:22;5.00;99.90
16655;DHT22;8441;51.344;7.022;2022-11-20T14:23:53;4.90;99.90
16655;DHT22;8441;51.344;7.022;2022-11-20T14:26:22;4.90;99.90
16655;DHT22;8441;51.344;7.022;2022-11-20T14:28:50;4.90;99.90
16655;DHT22;8441;51.344;7.022;2022-11-20T14:31:23;4.80;99.90
16655;DHT22;8441;51.344;7.022;2022-11-20T14:33:52;4.80;99.90
16655;DHT22;8441;51.344;7.022;2022-11-20T14:36:21;4.80;99.90
16655;DHT22;8441;51.344;7.022;2022-11-20T14:38:49;4.80;99.90
16655;DHT22;8441;51.344;7.022;2022-11-20T14:41:18;4.80;99.90
16655;DHT22;8441;51.344;7.022;2022-11-20T14:43:51;4.80;99.90
16655;DHT22;8441;51.344;7.022;2022-11-20T14:46:20;4.80;99.90
16655;DHT22;8441;51.344;7.022;2022-11-20T14:48:49;4.80;99.90
16655;DHT22;8441;51.344;7.022;2022-11-20T14:51:30;4.70;99.90
16655;DHT22;8441;51.344;7.022;2022-11-20T14:54:08;4.70;99.90
16655;DHT22;8441;51.344;7.022;2022-11-20T14:56:35;4.80;99.90
16655;DHT22;8441;51.344;7.022;2022-11-20T14:59:04;4.80;99.90
16655;DHT22;8441;51.344;7.022;2022-11-20T15:01:32;4.80;99.90
16655;DHT22;8441;51.344;7.022;2022-11-20T15:04:04;4.80;99.90
16655;DHT22;8441;51.344;7.022;2022-11-20T15:06:31;4.80;99.90
16655;DHT22;8441;51.344;7.022;2022-11-20T15:08:58;4.90;99.90
16655;DHT22;8441;51.344;7.022;2022-11-20T15:11:31;4.90;99.90
16655;DHT22;8441;51.344;7.022;2022-11-20T15:14:04;4.90;99.90
16655;DHT22;8441;51.344;7.022;2022-11-20T15:16:33;4.90;99.90
16655;DHT22;8441;51.344;7.022;2022-11-20T15:19:02;4.90;99.90
16655;DHT22;8441;51.344;7.022;2022-11-20T15:21:40;5.00;99.90
16655;DHT22;8441;51.344;7.022;2022-11-20T15:24:09;4.90;99.90
16655;DHT22;8441;51.344;7.022;2022-11-20T15:26:37;4.90;99.90
16655;DHT22;8441;51.344;7.022;2022-11-20T15:29:08;5.00;99.90
16655;DHT22;8441;51.344;7.022;2022-11-20T15:31:36;5.00;99.90
16655;DHT22;8441;51.344;7.022;2022-11-20T15:34:10;5.00;99.90
16655;DHT22;8441;51.344;7.022;2022-11-20T15:36:41;5.00;99.90
16655;DHT22;8441;51.344;7.022;2022-11-20T15:39:09;5.00;99.90
16655;DHT22;8441;51.344;7.022;2022-11-20T15:41:37;5.00;99.90
16655;DHT22;8441;51.344;7.022;2022-11-20T15:44:06;5.00;99.90
16655;DHT22;8441;51.344;7.022;2022-11-20T15:46:36;5.00;99.90
16655;DHT22;8441;51.344;7.022;2022-11-20T15:49:06;5.00;99.90
16655;DHT22;8441;51.344;7.022;2022-11-20T15:51:37;5.00;99.90
16655;DHT22;8441;51.344;7.022;2022-11-20T15:54:10;5.00;99.90
16655;DHT22;8441;51.344;7.022;2022-11-20T15:56:37;5.10;99.90
16655;DHT22;8441;51.344;7.022;2022-11-20T15:59:04;5.10;99.90
16655;DHT22;8441;51.344;7.022;2022-11-20T16:01:34;5.10;99.90
16655;DHT22;8441;51.344;7.022;2022-11-20T16:04:02;5.10;99.90
16655;DHT22;8441;51.344;7.022;2022-11-20T16:06:29;5.20;99.90
16655;DHT22;8441;51.344;7.022;2022-11-20T16:08:56;5.10;99.90
16655;DHT22;8441;51.344;7.022;2022-11-20T16:11:23;5.10;99.90
16655;DHT22;8441;51.344;7.022;2022-11-20T16:13:50;5.10;99.90
16655;DHT22;8441;51.344;7.022;2022-11-20T16:16:37;5.10;99.90
16655;DHT22;8441;51.344;7.022;2022-11-20T16:19:09;5.10;99.90
16655;DHT22;8441;51.344;7.022;2022-11-20T16:21:36;5.20;99.90
16655;DHT22;8441;51.344;7.022;2022-11-20T16:24:06;5.20;99.90
16655;DHT22;8441;51.344;7.022;2022-11-20T16:26:35;5.20;99.90
16655;DHT22;8441;51.344;7.022;2022-11-20T16:29:03;5.10;99.90
16655;DHT22;8441;51.344;7.022;2022-11-20T16:31:31;5.20;99.90